Time;durP1;ratioP1;P1;durP2;ratioP2;P2;SDS_P1;SDS_P2;PMS_P1;PMS_P2;Temp;Humidity;BMP_temperature;BMP_pressure;BME280_temperature;BME280_humidity;BME280_pressure;Samples;Min_cycle;Max_cycle;Signal;HPM_P1;HPM_P2
2020/12/11 00:00:17;;;;;;;47.20;10.32;;;18.00;47.10;;;;;;5096239;28;20032;-74
2020/12/11 00:02:43;;;;;;;29.88;8.20;;;17.90;47.40;;;;;;5093901;28;20063;-73
2020/12/11 00:05:10;;;;;;;34.53;8.25;;;17.80;48.10;;;;;;5084085;28;20052;-73
2020/12/11 00:07:41;;;;;;;38.00;8.98;;;17.80;48.30;;;;;;5085126;28;20039;-69
2020/12/11 00:10:09;;;;;;;31.48;8.85;;;17.60;47.70;;;;;;5093812;28;20453;-69
2020/12/11 00:12:36;;;;;;;43.47;10.05;;;17.40;48.10;;;;;;5091976;28;20026;-69
2020/12/11 00:15:04;;;;;;;36.58;8.10;;;17.30;48.40;;;;;;5076699;28;20028;-70
2020/12/11 00:17:31;;;;;;;43.20;7.93;;;17.20;49.30;;;;;;5086707;28;20153;-70
2020/12/11 00:19:57;;;;;;;40.47;7.88;;;17.10;49.10;;;;;;5085911;28;20028;-71
2020/12/11 00:22:24;;;;;;;36.85;8.15;;;17.10;49.10;;;;;;5085144;28;20480;-69
2020/12/11 00:24:51;;;;;;;32.85;7.85;;;16.70;49.60;;;;;;5087722;28;20064;-69
2020/12/11 00:27:18;;;;;;;31.88;7.43;;;16.60;50.20;;;;;;5091007;28;20099;-69
2020/12/11 00:29:44;;;;;;;39.50;9.40;;;16.40;50.60;;;;;;5085586;28;20050;-69
2020/12/11 00:32:11;;;;;;;33.95;8.10;;;16.40;50.30;;;;;;5085537;28;20036;-69
2020/12/11 00:34:37;;;;;;;29.60;7.47;;;16.50;49.70;;;;;;5095599;28;20048;-70
2020/12/11 00:37:05;;;;;;;31.45;7.45;;;16.40;49.50;;;;;;5088924;28;20077;-69
2020/12/11 00:39:32;;;;;;;37.33;7.88;;;16.50;49.30;;;;;;5086771;28;20024;-69
2020/12/11 00:41:59;;;;;;;31.45;9.13;;;16.50;49.00;;;;;;5084454;28;20024;-68
2020/12/11 00:44:25;;;;;;;35.22;8.80;;;16.50;49.00;;;;;;5086166;28;20035;-69
2020/12/11 00:46:52;;;;;;;37.10;8.32;;;16.30;49.10;;;;;;5086790;28;20060;-68
2020/12/11 00:49:18;;;;;;;25.27;5.93;;;16.10;49.80;;;;;;5085264;28;20012;-69
2020/12/11 00:51:44;;;;;;;23.92;5.68;;;16.00;49.00;;;;;;5093810;28;20055;-69
2020/12/11 00:54:11;;;;;;;23.25;5.65;;;16.00;48.50;;;;;;5085106;28;20471;-69
2020/12/11 00:56:37;;;;;;;24.10;5.80;;;15.90;48.40;;;;;;5088451;28;20096;-69
2020/12/11 00:59:04;;;;;;;25.15;5.20;;;15.70;47.90;;;;;;5090497;28;20031;-69
2020/12/11 01:01:36;;;;;;;19.95;4.60;;;15.60;48.00;;;;;;5084508;28;20028;-69
2020/12/11 01:04:04;;;;;;;29.90;5.75;;;15.50;48.30;;;;;;5080713;28;20056;-69
2020/12/11 01:06:31;;;;;;;27.92;5.53;;;15.60;47.40;;;;;;5087395;28;20173;-69
2020/12/11 01:08:57;;;;;;;25.58;6.18;;;15.70;47.20;;;;;;5077976;28;20054;-68
2020/12/11 01:11:24;;;;;;;24.42;6.40;;;15.80;46.60;;;;;;5095202;28;20028;-69
2020/12/11 01:13:51;;;;;;;17.45;4.43;;;15.60;46.30;;;;;;5087139;28;20054;-68
2020/12/11 01:16:17;;;;;;;22.10;4.97;;;15.70;45.40;;;;;;5092593;28;20020;-68
2020/12/11 01:18:43;;;;;;;26.67;5.35;;;15.70;45.40;;;;;;5092078;28;20103;-68
2020/12/11 01:21:10;;;;;;;25.90;4.95;;;15.50;45.20;;;;;;5085141;28;20031;-69
2020/12/11 01:23:36;;;;;;;21.25;5.60;;;15.30;45.60;;;;;;5099192;28;20025;-69
2020/12/11 01:26:06;;;;;;;14.05;4.70;;;15.30;45.30;;;;;;5099430;28;20038;-69
2020/12/11 01:28:32;;;;;;;16.45;4.60;;;15.40;44.70;;;;;;5086152;28;20119;-69
2020/12/11 01:30:58;;;;;;;18.77;3.95;;;15.30;44.80;;;;;;5090386;28;20028;-69
2020/12/11 01:33:25;;;;;;;11.00;3.72;;;15.20;44.80;;;;;;5091859;28;20020;-69
2020/12/11 01:35:51;;;;;;;20.73;6.18;;;15.10;44.90;;;;;;5089299;28;20361;-68
2020/12/11 01:38:18;;;;;;;17.52;4.72;;;15.20;44.40;;;;;;5092390;28;20028;-68
2020/12/11 01:40:45;;;;;;;22.80;4.57;;;15.30;43.80;;;;;;5096092;28;20028;-69
2020/12/11 01:43:11;;;;;;;17.92;4.22;;;15.20;43.90;;;;;;5086998;28;20067;-68
2020/12/11 01:45:38;;;;;;;19.08;4.57;;;15.00;44.10;;;;;;5085298;28;20112;-68
2020/12/11 01:48:06;;;;;;;16.08;3.30;;;14.90;44.70;;;;;;5082426;28;20016;-69
2020/12/11 01:50:34;;;;;;;20.42;4.38;;;14.80;44.30;;;;;;5087375;28;20074;-68
2020/12/11 01:53:00;;;;;;;19.23;4.93;;;14.60;44.80;;;;;;5083052;28;20028;-69
2020/12/11 01:55:27;;;;;;;22.00;4.55;;;14.70;44.80;;;;;;5087850;28;20101;-69
2020/12/11 01:58:19;;;;;;;20.40;4.15;;;14.70;44.80;;;;;;5087340;28;20069;-69
2020/12/11 02:00:46;;;;;;;23.80;5.80;;;14.60;45.40;;;;;;5092493;28;20023;-70
2020/12/11 02:03:14;;;;;;;19.00;4.97;;;14.70;46.70;;;;;;5082773;28;20032;-68
2020/12/11 02:05:40;;;;;;;23.50;5.25;;;14.80;47.00;;;;;;5087542;28;20039;-69
2020/12/11 02:08:06;;;;;;;29.83;5.88;;;14.70;49.20;;;;;;5087467;28;20021;-69
2020/12/11 02:10:33;;;;;;;30.15;6.80;;;14.70;49.80;;;;;;5086157;28;20024;-70
2020/12/11 02:13:08;;;;;;;26.92;4.82;;;14.70;49.60;;;;;;5089831;28;20028;-68
2020/12/11 02:15:35;;;;;;;23.50;5.40;;;14.90;49.70;;;;;;5088575;28;20103;-69
2020/12/11 02:18:03;;;;;;;20.77;4.75;;;14.60;50.70;;;;;;5083461;28;20021;-68
2020/12/11 02:20:30;;;;;;;23.55;5.13;;;14.60;51.80;;;;;;5085502;28;20130;-69
2020/12/11 02:22:56;;;;;;;21.88;5.10;;;14.70;51.30;;;;;;5086536;28;20403;-69
2020/12/11 02:25:23;;;;;;;29.98;5.80;;;14.50;51.60;;;;;;5093171;28;20028;-68
2020/12/11 02:27:49;;;;;;;27.48;6.38;;;14.30;52.50;;;;;;5081953;28;20021;-68
2020/12/11 02:30:17;;;;;;;26.27;4.70;;;14.30;53.90;;;;;;5093258;28;20153;-69
2020/12/11 02:32:43;;;;;;;22.40;4.78;;;14.30;52.50;;;;;;5087481;28;20111;-72
2020/12/11 02:35:10;;;;;;;22.83;5.32;;;14.30;53.80;;;;;;5083068;28;20359;-70
2020/12/11 02:37:37;;;;;;;29.73;7.55;;;14.40;54.30;;;;;;5089622;28;20441;-70
2020/12/11 02:40:06;;;;;;;23.58;4.80;;;14.50;54.00;;;;;;5091198;28;20059;-69
2020/12/11 02:42:33;;;;;;;31.52;6.57;;;14.60;55.60;;;;;;5085470;28;20031;-68
2020/12/11 02:44:59;;;;;;;24.27;4.38;;;14.50;55.40;;;;;;5095008;28;20031;-69
2020/12/11 02:47:26;;;;;;;23.42;6.68;;;14.50;54.10;;;;;;5088767;28;20036;-68
2020/12/11 02:50:11;;;;;;;27.85;6.15;;;14.30;55.00;;;;;;5083447;28;20664;-69
2020/12/11 02:52:37;;;;;;;24.45;6.95;;;14.30;54.10;;;;;;5085347;28;20369;-68
2020/12/11 02:55:03;;;;;;;28.42;6.18;;;14.30;54.10;;;;;;5080672;28;20025;-68
2020/12/11 02:57:30;;;;;;;20.83;5.38;;;14.20;54.20;;;;;;5086486;28;20024;-68
2020/12/11 02:59:56;;;;;;;27.83;6.45;;;14.20;56.20;;;;;;5084756;28;20035;-68
2020/12/11 03:02:22;;;;;;;31.10;5.72;;;14.30;55.30;;;;;;5094278;28;20479;-68
2020/12/11 03:04:49;;;;;;;24.92;4.70;;;14.20;55.00;;;;;;5095703;28;20032;-68
2020/12/11 03:07:15;;;;;;;25.42;5.72;;;14.00;56.70;;;;;;5091146;28;20040;-68
2020/12/11 03:09:41;;;;;;;22.02;5.35;;;14.00;56.70;;;;;;5095202;28;20028;-69
2020/12/11 03:12:08;;;;;;;26.55;5.00;;;14.10;55.30;;;;;;5105049;28;20043;-70
2020/12/11 03:14:34;;;;;;;18.70;4.63;;;14.00;56.20;;;;;;5120347;28;20053;-70
2020/12/11 03:17:01;;;;;;;27.30;6.40;;;14.00;55.40;;;;;;5102998;28;20361;-68
2020/12/11 03:19:27;;;;;;;28.55;5.13;;;14.10;55.80;;;;;;5094760;28;20027;-69
2020/12/11 03:21:54;;;;;;;35.72;8.20;;;14.20;56.10;;;;;;5094850;28;20510;-69
2020/12/11 03:24:20;;;;;;;25.90;6.47;;;14.30;55.60;;;;;;5094704;28;20085;-68
2020/12/11 03:26:46;;;;;;;24.80;5.72;;;14.40;55.10;;;;;;5095291;28;20020;-69
2020/12/11 03:29:13;;;;;;;19.13;4.38;;;14.60;55.80;;;;;;5107753;28;20212;-69
2020/12/11 03:31:39;;;;;;;30.35;7.13;;;14.60;55.40;;;;;;5100491;28;20472;-69
2020/12/11 03:34:05;;;;;;;25.35;6.65;;;14.60;55.90;;;;;;5091934;28;20028;-69
2020/12/11 03:36:32;;;;;;;18.30;4.72;;;14.40;56.40;;;;;;5097524;28;20106;-69
2020/12/11 03:38:58;;;;;;;20.98;5.90;;;14.40;56.50;;;;;;5088496;28;20179;-69
2020/12/11 03:41:25;;;;;;;24.70;6.07;;;14.60;56.20;;;;;;5089387;28;20028;-69
2020/12/11 03:43:51;;;;;;;32.75;6.93;;;14.70;56.40;;;;;;5088493;28;20055;-69
2020/12/11 03:46:19;;;;;;;31.05;7.50;;;14.60;55.80;;;;;;5092023;28;20817;-70
2020/12/11 03:48:46;;;;;;;23.00;4.43;;;14.50;56.80;;;;;;5103782;28;20039;-69
2020/12/11 03:51:21;;;;;;;26.55;4.85;;;14.50;56.70;;;;;;5086166;28;20509;-69
2020/12/11 03:53:47;;;;;;;20.75;4.55;;;14.50;55.80;;;;;;5081741;28;20027;-69
2020/12/11 03:56:18;;;;;;;20.30;6.68;;;14.50;56.90;;;;;;5087344;28;20069;-68
2020/12/11 03:58:45;;;;;;;15.98;4.18;;;14.50;56.80;;;;;;5092140;28;20020;-68
2020/12/11 04:01:13;;;;;;;26.23;6.30;;;14.30;57.30;;;;;;5091963;28;20494;-69
2020/12/11 04:03:41;;;;;;;19.25;5.28;;;14.30;57.00;;;;;;5087439;28;20066;-68
2020/12/11 04:06:11;;;;;;;17.77;4.93;;;14.30;56.20;;;;;;5085023;28;20052;-68
2020/12/11 04:08:39;;;;;;;23.92;6.25;;;14.50;57.80;;;;;;5096408;28;20027;-68
2020/12/11 04:11:07;;;;;;;24.38;5.35;;;14.50;56.80;;;;;;5091971;28;20016;-69
2020/12/11 04:13:34;;;;;;;22.80;4.13;;;14.20;58.00;;;;;;5096821;28;20060;-68
2020/12/11 04:16:01;;;;;;;22.42;5.05;;;14.20;57.00;;;;;;5095864;28;20095;-69
2020/12/11 04:18:27;;;;;;;19.10;4.72;;;14.10;57.40;;;;;;5097387;28;20067;-69
2020/12/11 04:20:56;;;;;;;16.70;4.72;;;14.20;57.10;;;;;;5086907;28;20024;-70
2020/12/11 04:23:25;;;;;;;24.17;8.10;;;14.20;56.20;;;;;;5092656;28;20031;-69
2020/12/11 04:25:53;;;;;;;27.73;5.85;;;14.20;57.60;;;;;;5094015;28;20465;-69
2020/12/11 04:28:19;;;;;;;23.08;4.22;;;14.20;57.50;;;;;;5092920;28;20036;-69
2020/12/11 04:30:46;;;;;;;22.77;4.10;;;14.10;56.50;;;;;;5090759;28;20035;-69
2020/12/11 04:33:13;;;;;;;17.83;3.75;;;14.00;57.50;;;;;;5085318;28;20028;-70
2020/12/11 04:35:39;;;;;;;24.50;5.40;;;14.00;57.00;;;;;;5084578;28;20052;-70
2020/12/11 04:38:06;;;;;;;24.63;5.47;;;14.10;56.60;;;;;;5078411;28;20081;-70
2020/12/11 04:40:32;;;;;;;20.92;4.85;;;14.10;58.50;;;;;;5094624;28;20019;-70
2020/12/11 04:42:59;;;;;;;32.47;5.82;;;14.30;58.60;;;;;;5102037;28;20039;-74
2020/12/11 04:45:26;;;;;;;20.70;6.05;;;14.40;58.00;;;;;;5101893;28;20035;-71
2020/12/11 04:47:54;;;;;;;29.83;5.53;;;14.50;58.60;;;;;;5097669;28;20095;-72
2020/12/11 04:50:20;;;;;;;25.10;7.88;;;14.60;57.80;;;;;;5091991;28;20607;-71
2020/12/11 04:52:48;;;;;;;27.58;5.53;;;14.50;58.90;;;;;;5091633;28;20097;-72
2020/12/11 04:55:21;;;;;;;28.25;6.20;;;14.50;59.60;;;;;;5086743;28;20481;-71
2020/12/11 04:57:50;;;;;;;25.05;6.97;;;14.60;58.90;;;;;;5085705;28;20047;-71
2020/12/11 05:00:18;;;;;;;21.33;5.07;;;14.60;58.80;;;;;;5090812;28;20020;-71
2020/12/11 05:02:46;;;;;;;23.85;5.80;;;14.50;58.60;;;;;;5088527;28;20024;-72
2020/12/11 05:05:14;;;;;;;31.65;6.28;;;14.40;59.30;;;;;;5092011;28;20036;-70
2020/12/11 05:07:43;;;;;;;31.25;6.30;;;14.40;59.20;;;;;;5083317;28;20028;-70
2020/12/11 05:10:10;;;;;;;25.40;5.32;;;14.30;59.80;;;;;;5090289;28;20024;-70
2020/12/11 05:12:37;;;;;;;32.72;4.30;;;14.20;59.90;;;;;;5095845;28;20021;-71
2020/12/11 05:15:12;;;;;;;27.52;5.53;;;14.20;61.00;;;;;;5095361;28;20077;-71
2020/12/11 05:17:42;;;;;;;24.10;5.18;;;14.10;60.70;;;;;;5096787;28;20020;-72
2020/12/11 05:20:11;;;;;;;25.08;5.50;;;14.10;61.30;;;;;;5097778;28;20093;-72
2020/12/11 05:22:39;;;;;;;22.73;4.25;;;14.10;61.50;;;;;;5095390;28;20507;-70
2020/12/11 05:25:13;;;;;;;25.55;5.25;;;14.10;61.60;;;;;;5092637;28;20047;-70
2020/12/11 05:27:41;;;;;;;21.55;4.55;;;14.00;61.80;;;;;;5089362;28;20016;-70
2020/12/11 05:30:10;;;;;;;28.42;5.85;;;14.10;60.50;;;;;;5097084;28;20020;-70
2020/12/11 05:32:41;;;;;;;22.23;3.53;;;14.00;61.50;;;;;;5101540;28;20364;-70
2020/12/11 05:35:20;;;;;;;22.38;4.00;;;14.10;61.60;;;;;;5103137;28;20110;-70
2020/12/11 05:37:56;;;;;;;21.63;4.68;;;14.00;62.30;;;;;;5084086;28;20035;-70
2020/12/11 05:40:33;;;;;;;25.02;5.93;;;13.90;61.80;;;;;;5089483;28;20024;-70
2020/12/11 05:43:18;;;;;;;23.80;4.45;;;14.00;62.50;;;;;;5096470;28;20020;-70
2020/12/11 05:45:49;;;;;;;24.48;4.85;;;13.90;61.60;;;;;;5086115;28;20055;-69
2020/12/11 05:48:15;;;;;;;17.65;3.97;;;13.90;63.80;;;;;;5101076;28;20039;-72
2020/12/11 05:50:42;;;;;;;23.98;4.40;;;14.10;63.80;;;;;;5103679;28;20024;-70
2020/12/11 05:53:09;;;;;;;13.43;3.78;;;13.90;61.30;;;;;;5091688;28;20032;-70
2020/12/11 05:55:36;;;;;;;15.00;4.82;;;14.00;63.90;;;;;;5086832;28;20357;-70
2020/12/11 05:58:02;;;;;;;17.40;4.50;;;14.00;63.80;;;;;;5090370;28;20513;-70
2020/12/11 06:00:29;;;;;;;22.10;4.72;;;14.00;62.80;;;;;;5094360;28;20107;-70
2020/12/11 06:02:56;;;;;;;26.08;3.72;;;13.80;63.30;;;;;;5099399;28;20028;-70
2020/12/11 06:05:24;;;;;;;20.92;4.90;;;13.70;64.20;;;;;;5085177;27;20048;-70
2020/12/11 06:07:51;;;;;;;21.40;5.25;;;13.50;65.50;;;;;;5084242;28;20012;-71
2020/12/11 06:10:23;;;;;;;19.92;4.75;;;13.50;65.10;;;;;;5081734;28;20094;-70
2020/12/11 06:12:50;;;;;;;20.63;4.47;;;13.40;65.60;;;;;;5089246;28;20104;-70
2020/12/11 06:15:22;;;;;;;25.08;4.63;;;13.30;65.60;;;;;;5095342;28;20480;-70
2020/12/11 06:18:10;;;;;;;23.98;5.13;;;13.80;64.40;;;;;;5094388;28;20099;-70
2020/12/11 06:20:38;;;;;;;20.52;4.30;;;13.60;65.40;;;;;;5083155;28;20349;-70
2020/12/11 06:23:24;;;;;;;17.27;3.63;;;13.60;65.40;;;;;;5094320;28;20373;-70
2020/12/11 06:25:54;;;;;;;18.00;3.65;;;13.90;65.00;;;;;;5088039;28;20039;-70
2020/12/11 06:28:36;;;;;;;15.48;4.63;;;13.90;63.90;;;;;;5094836;28;20477;-70
2020/12/11 06:31:04;;;;;;;22.15;4.78;;;13.60;63.40;;;;;;5097461;28;20043;-69
2020/12/11 06:33:35;;;;;;;19.70;3.67;;;13.40;66.20;;;;;;5080975;28;20020;-71
2020/12/11 06:36:04;;;;;;;17.45;3.90;;;13.20;68.30;;;;;;5090696;28;20051;-72
2020/12/11 06:38:41;;;;;;;19.73;6.20;;;13.30;65.30;;;;;;5101564;28;20051;-72
2020/12/11 06:41:08;;;;;;;15.93;4.72;;;13.40;64.30;;;;;;5102147;28;20020;-71
2020/12/11 06:43:45;;;;;;;16.08;3.03;;;13.50;62.40;;;;;;5095378;28;20476;-70
2020/12/11 06:46:20;;;;;;;9.45;2.67;;;13.50;64.00;;;;;;5088803;28;20028;-69
2020/12/11 06:49:20;;;;;;;19.60;4.57;;;13.40;63.30;;;;;;5092308;28;20028;-70
2020/12/11 06:51:46;;;;;;;19.88;4.13;;;13.30;63.10;;;;;;5106760;28;20380;-71
2020/12/11 06:54:33;;;;;;;16.15;3.58;;;13.20;64.80;;;;;;5094738;28;20028;-70
2020/12/11 06:57:02;;;;;;;15.98;3.15;;;13.20;63.60;;;;;;5097725;28;20043;-70
2020/12/11 06:59:30;;;;;;;26.00;6.13;;;13.20;64.10;;;;;;5095996;28;20111;-70
2020/12/11 07:02:17;;;;;;;17.70;4.63;;;13.20;61.50;;;;;;5096294;28;20484;-70
2020/12/11 07:04:45;;;;;;;21.42;3.85;;;13.20;62.90;;;;;;5084058;28;20040;-70
2020/12/11 07:07:12;;;;;;;10.57;3.83;;;13.20;63.10;;;;;;5088053;28;20028;-70
2020/12/11 07:09:40;;;;;;;8.40;3.47;;;13.30;62.40;;;;;;5089351;28;20032;-70
2020/12/11 07:12:07;;;;;;;24.13;3.38;;;13.10;63.70;;;;;;5085224;28;20437;-70
2020/12/11 07:14:33;;;;;;;16.45;3.30;;;13.00;66.20;;;;;;5087516;28;20035;-70
2020/12/11 07:17:00;;;;;;;15.25;3.10;;;13.10;65.30;;;;;;5093272;28;20028;-70
2020/12/11 07:19:37;;;;;;;20.33;4.38;;;13.20;65.60;;;;;;5088336;28;20035;-70
2020/12/11 07:22:04;;;;;;;19.40;3.53;;;13.10;66.70;;;;;;5083919;28;20121;-69
2020/12/11 07:24:34;;;;;;;18.63;3.08;;;13.30;65.70;;;;;;5090014;28;20035;-69
2020/12/11 07:27:05;;;;;;;18.80;4.13;;;13.50;63.30;;;;;;5087747;28;20076;-70
2020/12/11 07:29:32;;;;;;;17.48;3.10;;;13.40;63.80;;;;;;5082255;28;20364;-70
2020/12/11 07:31:59;;;;;;;25.35;6.32;;;13.40;63.00;;;;;;5086172;28;20012;-70
2020/12/11 07:34:27;;;;;;;17.15;5.28;;;13.60;63.10;;;;;;5084655;28;20078;-70
2020/12/11 07:36:58;;;;;;;15.23;3.35;;;13.60;63.40;;;;;;5092123;28;20103;-70
2020/12/11 07:39:30;;;;;;;10.05;2.65;;;13.50;63.00;;;;;;5088565;28;20024;-69
2020/12/11 07:42:00;;;;;;;16.33;3.33;;;13.40;65.30;;;;;;5089651;28;20093;-70
2020/12/11 07:44:34;;;;;;;16.05;2.65;;;13.40;64.40;;;;;;5096939;28;20035;-70
2020/12/11 07:47:05;;;;;;;17.15;3.35;;;13.40;63.70;;;;;;5093367;28;20035;-70
2020/12/11 07:49:44;;;;;;;17.90;3.95;;;13.90;63.90;;;;;;5092794;28;20100;-70
2020/12/11 07:52:12;;;;;;;15.75;3.03;;;13.80;61.20;;;;;;5091780;28;20485;-69
2020/12/11 07:54:43;;;;;;;14.55;3.08;;;13.80;62.20;;;;;;5094624;28;20032;-70
2020/12/11 07:57:10;;;;;;;17.73;3.45;;;13.70;62.50;;;;;;5097863;28;20336;-71
2020/12/11 07:59:36;;;;;;;12.68;3.65;;;13.70;61.70;;;;;;5095234;28;20030;-71
2020/12/11 08:02:03;;;;;;;10.88;3.13;;;13.70;61.50;;;;;;5089993;28;20028;-70
2020/12/11 08:04:29;;;;;;;19.10;4.03;;;13.80;62.20;;;;;;5098627;28;20015;-70
2020/12/11 08:06:58;;;;;;;22.48;3.70;;;13.60;61.90;;;;;;5092574;28;20111;-70
2020/12/11 08:09:37;;;;;;;20.33;3.20;;;13.80;60.90;;;;;;5094812;28;20020;-70
2020/12/11 08:12:27;;;;;;;16.85;4.35;;;13.70;60.60;;;;;;5095847;28;20051;-70
2020/12/11 08:14:54;;;;;;;21.02;3.28;;;13.70;60.30;;;;;;5089992;28;20024;-69
2020/12/11 08:17:22;;;;;;;21.50;4.25;;;13.80;60.40;;;;;;5086569;28;20073;-71
2020/12/11 08:20:01;;;;;;;7.97;3.33;;;13.80;59.50;;;;;;5092366;28;20035;-70
2020/12/11 08:22:32;;;;;;;11.52;2.95;;;13.50;60.70;;;;;;5092101;28;20032;-71
2020/12/11 08:25:00;;;;;;;13.23;3.07;;;13.60;59.60;;;;;;5090419;28;20039;-70
2020/12/11 08:27:29;;;;;;;19.33;3.67;;;13.50;60.00;;;;;;5092302;28;20025;-70
2020/12/11 08:30:16;;;;;;;14.05;3.00;;;13.30;60.90;;;;;;5093243;28;20490;-70
2020/12/11 08:32:45;;;;;;;12.70;2.70;;;13.20;60.00;;;;;;5093997;28;20082;-70
2020/12/11 08:35:16;;;;;;;15.25;3.30;;;13.20;60.60;;;;;;5093112;28;20040;-70
2020/12/11 08:37:53;;;;;;;15.02;3.33;;;13.20;59.70;;;;;;5092115;28;20069;-70
2020/12/11 08:40:20;;;;;;;14.40;3.30;;;13.10;60.80;;;;;;5085722;28;20029;-69
2020/12/11 08:43:34;;;;;;;19.23;2.85;;;13.10;60.40;;;;;;5090845;28;20359;-70
2020/12/11 08:51:35;;;;;;;15.57;2.80;;;13.10;60.50;;;;;;5094836;28;20024;-70
2020/12/11 08:54:05;;;;;;;8.68;2.85;;;13.10;59.50;;;;;;5091970;28;20376;-70
2020/12/11 08:56:32;;;;;;;13.32;3.38;;;13.00;60.10;;;;;;5097535;28;20132;-70
2020/12/11 08:58:58;;;;;;;17.25;2.97;;;13.10;59.70;;;;;;5096466;28;20028;-70
2020/12/11 09:01:25;;;;;;;12.57;3.20;;;13.10;58.90;;;;;;5094004;28;20407;-70
2020/12/11 09:03:51;;;;;;;19.55;3.28;;;12.70;60.60;;;;;;5091737;28;20084;-70
2020/12/11 09:06:18;;;;;;;13.70;2.83;;;12.70;60.00;;;;;;5091545;28;20103;-73
2020/12/11 09:08:44;;;;;;;13.82;2.85;;;12.70;60.50;;;;;;5099496;28;20024;-70
2020/12/11 09:11:10;;;;;;;13.55;3.00;;;12.60;60.30;;;;;;5092213;28;20103;-70
2020/12/11 09:13:37;;;;;;;14.18;3.25;;;12.70;60.40;;;;;;5095366;28;20039;-70
2020/12/11 09:16:03;;;;;;;13.80;3.83;;;12.60;60.40;;;;;;5095909;28;20024;-70
2020/12/11 09:18:29;;;;;;;9.57;2.90;;;12.50;60.40;;;;;;5090165;28;20037;-70
2020/12/11 09:20:56;;;;;;;21.35;4.80;;;12.50;60.10;;;;;;5094130;28;20365;-70
2020/12/11 09:23:22;;;;;;;19.33;2.90;;;12.40;59.20;;;;;;5085193;28;20035;-71
2020/12/11 09:25:49;;;;;;;16.77;3.53;;;12.40;60.00;;;;;;5087436;28;20092;-70
2020/12/11 09:28:18;;;;;;;11.38;3.13;;;12.40;59.70;;;;;;5091615;28;20029;-70
2020/12/11 09:30:46;;;;;;;19.65;3.38;;;12.30;60.20;;;;;;5092113;28;20020;-70
2020/12/11 09:33:18;;;;;;;14.10;3.35;;;12.40;59.10;;;;;;5089714;28;20149;-70
2020/12/11 09:35:45;;;;;;;19.75;4.05;;;12.40;58.90;;;;;;5090402;28;20020;-70
2020/12/11 09:38:13;;;;;;;18.98;4.60;;;12.30;59.50;;;;;;5090113;28;20548;-70
2020/12/11 09:40:59;;;;;;;14.05;3.75;;;12.30;59.40;;;;;;5093468;28;20036;-70
2020/12/11 09:56:04;;;;;;;14.73;4.07;;;11.80;63.10;;;;;;5094627;28;20463;-71
2020/12/11 09:58:34;;;;;;;16.92;3.45;;;11.80;61.90;;;;;;5093658;28;20092;-73
2020/12/11 10:01:02;;;;;;;17.70;4.22;;;11.90;62.00;;;;;;5107401;28;20051;-71
2020/12/11 10:03:35;;;;;;;15.40;3.60;;;11.90;61.70;;;;;;5096512;28;20024;-70
2020/12/11 10:06:05;;;;;;;13.15;3.10;;;11.90;61.50;;;;;;5088213;28;20114;-70
2020/12/11 10:08:32;;;;;;;12.10;2.47;;;11.90;61.60;;;;;;5095665;28;20027;-70
2020/12/11 10:10:59;;;;;;;8.65;2.80;;;11.80;61.90;;;;;;5096462;28;20449;-72
2020/12/11 10:13:25;;;;;;;12.38;2.80;;;11.80;61.50;;;;;;5105284;28;20031;-70
2020/12/11 10:15:52;;;;;;;10.45;3.28;;;11.70;62.10;;;;;;5095649;28;20032;-70
2020/12/11 10:18:18;;;;;;;14.10;2.90;;;11.70;61.50;;;;;;5085724;28;20358;-70
2020/12/11 10:20:45;;;;;;;11.45;3.35;;;11.70;61.60;;;;;;5092260;28;20028;-70
2020/12/11 10:23:11;;;;;;;10.05;2.88;;;11.60;61.50;;;;;;5092692;28;20035;-70
2020/12/11 10:25:37;;;;;;;11.57;2.85;;;11.60;61.40;;;;;;5092561;28;20017;-70
2020/12/11 10:28:04;;;;;;;13.00;2.80;;;11.60;61.90;;;;;;5095526;28;20511;-70
2020/12/11 10:30:32;;;;;;;10.85;3.33;;;11.50;61.70;;;;;;5095537;28;20073;-70
2020/12/11 10:32:58;;;;;;;11.65;2.40;;;11.50;61.50;;;;;;5093692;28;20016;-70
2020/12/11 10:35:24;;;;;;;10.32;2.78;;;11.40;61.90;;;;;;5095940;28;20028;-70
2020/12/11 10:37:51;;;;;;;16.63;4.13;;;11.40;61.60;;;;;;5093511;28;20032;-69
2020/12/11 10:40:17;;;;;;;11.20;4.00;;;11.30;61.30;;;;;;5088272;28;20032;-70
2020/12/11 10:42:43;;;;;;;9.27;2.65;;;11.30;61.40;;;;;;5084232;28;20032;-71
2020/12/11 10:45:10;;;;;;;8.40;3.15;;;11.20;61.40;;;;;;5087877;28;20020;-71
2020/12/11 10:47:36;;;;;;;11.43;3.17;;;11.10;61.60;;;;;;5091416;28;20055;-70
2020/12/11 10:50:03;;;;;;;10.50;3.10;;;11.10;61.60;;;;;;5095351;28;20020;-71
2020/12/11 10:52:29;;;;;;;12.30;3.38;;;11.00;61.90;;;;;;5094099;28;20454;-70
2020/12/11 10:54:56;;;;;;;9.07;3.08;;;11.00;62.30;;;;;;5092569;28;20016;-70
2020/12/11 10:57:22;;;;;;;8.85;2.60;;;10.90;61.90;;;;;;5094254;28;20098;-70
2020/12/11 10:59:49;;;;;;;10.70;2.83;;;10.90;61.80;;;;;;5092991;28;20494;-70
2020/12/11 11:02:15;;;;;;;12.27;2.88;;;10.80;62.10;;;;;;5093382;28;20024;-70
2020/12/11 11:04:42;;;;;;;13.98;3.22;;;10.80;62.20;;;;;;5095151;28;20020;-70
2020/12/11 11:07:16;;;;;;;13.98;3.42;;;10.70;62.70;;;;;;5094523;28;20323;-70
2020/12/11 11:10:00;;;;;;;13.55;3.17;;;10.40;66.00;;;;;;5093221;28;20016;-70
2020/12/11 11:12:33;;;;;;;15.10;3.95;;;10.40;64.30;;;;;;5092043;28;20103;-70
2020/12/11 11:30:21;;;;;;;13.10;2.78;;;10.30;62.60;;;;;;5090622;28;20062;-70
2020/12/11 11:32:50;;;;;;;5.68;2.72;;;10.40;62.40;;;;;;5091317;28;20334;-70
2020/12/11 11:35:17;;;;;;;15.38;3.10;;;10.30;62.30;;;;;;5083180;28;20067;-70
2020/12/11 11:37:44;;;;;;;11.05;2.58;;;10.40;62.30;;;;;;5080917;28;20081;-70
2020/12/11 11:40:10;;;;;;;19.40;4.47;;;10.30;62.20;;;;;;5089442;28;20028;-70
2020/12/11 11:42:37;;;;;;;10.57;3.33;;;10.30;60.10;;;;;;5092609;28;20077;-71
2020/12/11 11:45:13;;;;;;;15.82;4.38;;;10.40;61.60;;;;;;5089454;28;20123;-70
2020/12/11 11:47:42;;;;;;;10.25;2.78;;;10.30;61.80;;;;;;5095100;28;20020;-70
2020/12/11 11:50:27;;;;;;;9.45;3.17;;;10.20;62.40;;;;;;5093764;28;20032;-70
2020/12/11 11:53:01;;;;;;;11.10;2.80;;;10.20;62.60;;;;;;5082555;28;20148;-70
2020/12/11 11:55:27;;;;;;;15.27;4.65;;;10.10;62.30;;;;;;5093061;28;20457;-70
2020/12/11 11:57:54;;;;;;;18.40;5.60;;;10.10;61.30;;;;;;5092974;28;20028;-70
2020/12/11 12:00:20;;;;;;;18.52;5.50;;;10.10;61.80;;;;;;5091775;28;20036;-70
2020/12/11 12:02:47;;;;;;;13.02;5.00;;;10.00;62.40;;;;;;5093840;28;20483;-70
2020/12/11 12:05:15;;;;;;;20.58;3.45;;;10.00;60.30;;;;;;5089317;28;20034;-70
2020/12/11 12:07:42;;;;;;;15.73;4.25;;;10.00;62.20;;;;;;5091962;28;20035;-70
2020/12/11 12:10:09;;;;;;;14.32;4.25;;;10.00;61.90;;;;;;5090150;28;20086;-70
2020/12/11 12:12:41;;;;;;;21.02;4.15;;;9.90;61.90;;;;;;5091938;28;20030;-70
2020/12/11 12:15:13;;;;;;;22.08;4.47;;;9.90;61.60;;;;;;5092264;28;20028;-70
2020/12/11 12:18:04;;;;;;;17.13;4.07;;;9.90;60.70;;;;;;5093639;28;20028;-70
2020/12/11 12:20:40;;;;;;;18.58;4.32;;;9.80;62.70;;;;;;5091833;28;20044;-70
2020/12/11 12:31:02;;;;;;;18.70;5.57;;;9.90;63.10;;;;;;5097149;28;20030;-70
2020/12/11 12:36:29;;;;;;;25.00;5.00;;;10.30;64.50;;;;;;5097941;28;20024;-70
2020/12/11 12:39:02;;;;;;;18.10;4.13;;;10.50;63.80;;;;;;5096141;28;20032;-70
2020/12/11 12:44:13;;;;;;;16.27;4.28;;;10.90;64.20;;;;;;5095136;28;20043;-70
2020/12/11 12:46:45;;;;;;;28.75;5.70;;;11.00;62.70;;;;;;5098038;28;20034;-70
2020/12/11 12:49:12;;;;;;;21.70;4.32;;;11.10;63.20;;;;;;5095621;28;20024;-70
2020/12/11 12:51:39;;;;;;;27.25;5.72;;;11.10;63.10;;;;;;5097869;28;20024;-70
2020/12/11 12:54:06;;;;;;;25.48;5.50;;;11.20;62.50;;;;;;5093054;28;20348;-70
2020/12/11 12:56:41;;;;;;;27.77;4.82;;;11.40;62.50;;;;;;5095519;28;20048;-70
2020/12/11 13:06:57;;;;;;;20.85;5.38;;;11.40;63.30;;;;;;5084631;28;20085;-70
2020/12/11 13:09:24;;;;;;;12.27;4.57;;;11.50;62.60;;;;;;5093657;28;20028;-70
2020/12/11 13:11:50;;;;;;;13.13;4.07;;;11.50;62.50;;;;;;5095788;28;20054;-71
2020/12/11 13:14:17;;;;;;;24.05;5.18;;;11.50;61.10;;;;;;5095647;28;20472;-70
2020/12/11 13:16:44;;;;;;;21.50;4.63;;;11.50;61.80;;;;;;5082588;28;20110;-70
2020/12/11 13:19:13;;;;;;;19.20;4.03;;;11.50;61.50;;;;;;5099020;28;20016;-72
2020/12/11 13:21:50;;;;;;;16.27;4.30;;;11.40;61.70;;;;;;5104085;28;20036;-70
2020/12/11 13:27:07;;;;;;;23.77;4.60;;;11.50;61.60;;;;;;5096948;28;20027;-70
2020/12/11 13:29:33;;;;;;;13.20;4.03;;;11.40;63.00;;;;;;5094529;28;20361;-71
2020/12/11 13:32:00;;;;;;;23.60;4.03;;;11.40;62.30;;;;;;5101460;28;20026;-70
2020/12/11 13:34:27;;;;;;;13.80;3.38;;;11.40;62.40;;;;;;5092173;28;20492;-70
2020/12/11 13:36:53;;;;;;;15.45;3.92;;;11.40;62.90;;;;;;5095021;28;20077;-72
2020/12/11 13:39:20;;;;;;;23.85;6.93;;;11.40;62.40;;;;;;5095425;28;20030;-70
2020/12/11 13:41:46;;;;;;;21.30;7.07;;;11.50;62.20;;;;;;5089875;28;20056;-70
2020/12/11 13:44:12;;;;;;;29.27;6.80;;;11.50;62.60;;;;;;5094836;28;20729;-70